createdAt,value
2016-07-11T00:00:12.908Z,770
2016-07-11T00:00:42.924Z,770
2016-07-11T00:01:12.941Z,770
2016-07-11T00:01:42.956Z,511
2016-07-11T00:02:12.971Z,511
2016-07-11T00:02:42.986Z,771
2016-07-11T00:03:13.002Z,774
2016-07-11T00:03:43.029Z,770
2016-07-11T00:04:13.038Z,770
2016-07-11T00:04:43.053Z,777
2016-07-11T00:05:13.073Z,777
2016-07-11T00:05:43.080Z,777
2016-07-11T00:06:13.102Z,777
2016-07-11T00:06:43.114Z,777
2016-07-11T00:07:13.132Z,774
2016-07-11T00:07:43.142Z,511
2016-07-11T00:08:13.163Z,777
2016-07-11T00:08:43.188Z,777
2016-07-11T00:09:13.191Z,777
2016-07-11T00:09:43.210Z,770
2016-07-11T00:10:13.226Z,780
2016-07-11T00:10:43.240Z,774
2016-07-11T00:11:13.257Z,777
2016-07-11T00:11:43.273Z,770
2016-07-11T00:12:13.287Z,770
2016-07-11T00:12:43.306Z,770
2016-07-11T00:13:13.319Z,770
2016-07-11T00:13:43.338Z,770
2016-07-11T00:14:13.349Z,777
2016-07-11T00:14:43.366Z,777
2016-07-11T00:15:13.384Z,774
2016-07-11T00:15:43.402Z,774
2016-07-11T00:16:13.413Z,774
2016-07-11T00:16:43.433Z,774
2016-07-11T00:17:13.445Z,774
2016-07-11T00:17:43.460Z,771
2016-07-11T00:18:13.477Z,511
2016-07-11T00:18:43.493Z,771
2016-07-11T00:19:13.512Z,774
2016-07-11T00:19:43.526Z,771
2016-07-11T00:20:12.923Z,771
2016-07-11T00:20:43.559Z,504
2016-07-11T00:21:12.957Z,511
2016-07-11T00:21:43.587Z,502
2016-07-11T00:22:13.605Z,502
2016-07-11T00:22:43.010Z,510
2016-07-11T00:23:13.634Z,510
2016-07-11T00:23:43.669Z,509
2016-07-11T00:24:13.664Z,509
2016-07-11T00:24:43.679Z,771
2016-07-11T00:25:13.704Z,771
2016-07-11T00:25:43.715Z,508
2016-07-11T00:26:13.733Z,768
2016-07-11T00:26:43.750Z,768
2016-07-11T00:27:13.778Z,509
2016-07-11T00:27:43.774Z,509
2016-07-11T00:28:13.796Z,509
2016-07-11T00:28:43.809Z,509
2016-07-11T00:29:13.833Z,509
2016-07-11T00:29:43.841Z,509
2016-07-11T00:30:13.857Z,505
2016-07-11T00:30:43.872Z,505
2016-07-11T00:31:13.891Z,505
2016-07-11T00:31:43.906Z,505
2016-07-11T00:32:13.307Z,771
2016-07-11T00:32:43.937Z,511
2016-07-11T00:33:13.954Z,511
2016-07-11T00:33:43.968Z,511
2016-07-11T00:34:13.982Z,508
2016-07-11T00:34:43.995Z,508
2016-07-11T00:35:14.015Z,511
2016-07-11T00:35:44.035Z,504
2016-07-11T00:36:14.053Z,771
2016-07-11T00:36:43.447Z,771
2016-07-11T00:37:14.077Z,775
2016-07-11T00:37:44.094Z,775
2016-07-11T00:38:14.116Z,508
2016-07-11T00:38:44.140Z,774
2016-07-11T00:39:14.139Z,774
2016-07-11T00:39:44.157Z,771
2016-07-11T00:40:13.558Z,771
2016-07-11T00:40:44.188Z,511
2016-07-11T00:41:14.205Z,511
2016-07-11T00:41:44.221Z,511
2016-07-11T00:42:14.234Z,511
2016-07-11T00:42:44.251Z,511
2016-07-11T00:43:14.277Z,508
2016-07-11T00:43:44.289Z,769
2016-07-11T00:44:14.300Z,769
2016-07-11T00:44:44.311Z,769
2016-07-11T00:45:14.328Z,775
2016-07-11T00:45:44.346Z,771
2016-07-11T00:46:14.365Z,771
2016-07-11T00:46:44.387Z,509
2016-07-11T00:47:13.778Z,509
2016-07-11T00:47:44.410Z,775
2016-07-11T00:48:14.429Z,511
2016-07-11T00:48:44.436Z,777
2016-07-11T00:49:14.456Z,509
2016-07-11T00:49:44.478Z,768
2016-07-11T00:50:14.484Z,769
2016-07-11T00:50:44.502Z,769
2016-07-11T00:51:14.516Z,772
2016-07-11T00:51:44.534Z,769
2016-07-11T00:52:14.550Z,780
2016-07-11T00:52:44.571Z,777
2016-07-11T00:53:14.581Z,770
2016-07-11T00:53:44.601Z,770
2016-07-11T00:54:14.610Z,773
2016-07-11T00:54:44.627Z,506
2016-07-11T00:55:14.646Z,768
2016-07-11T00:55:44.660Z,768
2016-07-11T00:56:14.673Z,768
2016-07-11T00:56:44.689Z,504
2016-07-11T00:57:14.708Z,508
2016-07-11T00:57:44.726Z,508
2016-07-11T00:58:14.740Z,504
2016-07-11T00:58:44.141Z,770
2016-07-11T00:59:14.772Z,770
2016-07-11T00:59:44.786Z,504
2016-07-11T01:00:14.812Z,774
2016-07-11T01:00:44.821Z,774
2016-07-11T01:01:14.831Z,508
2016-07-11T01:01:44.850Z,508
2016-07-11T01:02:14.862Z,508
2016-07-11T01:02:44.880Z,768
2016-07-11T01:03:14.897Z,768
2016-07-11T01:03:44.925Z,768
2016-07-11T01:04:14.932Z,771
2016-07-11T01:04:44.944Z,771
2016-07-11T01:05:14.959Z,508
2016-07-11T01:05:44.357Z,775
2016-07-11T01:06:14.996Z,779
2016-07-11T01:06:45.007Z,779
2016-07-11T01:07:15.026Z,772
2016-07-11T01:07:45.034Z,772
2016-07-11T01:08:15.050Z,510
2016-07-11T01:08:45.073Z,773
2016-07-11T01:09:15.085Z,770
2016-07-11T01:09:45.104Z,773
2016-07-11T01:10:15.118Z,777
2016-07-11T01:10:45.132Z,777
2016-07-11T01:11:15.147Z,774
2016-07-11T01:11:45.164Z,774
2016-07-11T01:12:15.179Z,770
2016-07-11T01:12:45.194Z,774
2016-07-11T01:13:15.211Z,774
2016-07-11T01:13:45.237Z,774
2016-07-11T01:14:15.241Z,774
2016-07-11T01:14:45.256Z,774
2016-07-11T01:15:15.273Z,774
2016-07-11T01:15:45.292Z,774
2016-07-11T01:16:15.305Z,774
2016-07-11T01:16:45.320Z,784
2016-07-11T01:17:15.337Z,781
2016-07-11T01:17:45.350Z,781
2016-07-11T01:18:15.369Z,779
2016-07-11T01:18:45.382Z,779
2016-07-11T01:19:15.404Z,779
2016-07-11T01:19:45.416Z,779
2016-07-11T01:20:15.436Z,782
2016-07-11T01:20:45.448Z,779
2016-07-11T01:21:15.465Z,779
2016-07-11T01:21:45.481Z,779
2016-07-11T01:22:15.493Z,779
2016-07-11T01:22:45.507Z,775
2016-07-11T01:23:15.525Z,780
2016-07-11T01:23:45.537Z,780
2016-07-11T01:24:15.555Z,773
2016-07-11T01:24:45.571Z,773
2016-07-11T01:25:14.973Z,776
2016-07-11T01:25:45.600Z,777
2016-07-11T01:26:15.615Z,773
2016-07-11T01:26:45.635Z,789
2016-07-11T01:27:15.649Z,785
2016-07-11T01:27:45.671Z,785
2016-07-11T01:28:15.064Z,785
2016-07-11T01:28:45.693Z,775
2016-07-11T01:29:15.708Z,775
2016-07-11T01:29:45.727Z,775
2016-07-11T01:30:15.739Z,775
2016-07-11T01:30:45.759Z,775
2016-07-11T01:31:15.775Z,779
2016-07-11T01:31:45.796Z,779
2016-07-11T01:32:15.191Z,775
2016-07-11T01:32:45.819Z,775
2016-07-11T01:33:15.223Z,779
2016-07-11T01:33:45.851Z,782
2016-07-11T01:34:15.870Z,782
2016-07-11T01:34:45.884Z,786
2016-07-11T01:35:15.896Z,786
2016-07-11T01:35:45.915Z,782
2016-07-11T01:36:15.933Z,784
2016-07-11T01:36:45.331Z,778
2016-07-11T01:37:15.966Z,785
2016-07-11T01:37:45.976Z,785
2016-07-11T01:38:15.989Z,785
2016-07-11T01:38:46.021Z,785
2016-07-11T01:39:16.024Z,785
2016-07-11T01:39:46.036Z,785
2016-07-11T01:40:16.057Z,785
2016-07-11T01:40:46.077Z,785
2016-07-11T01:41:16.085Z,793
2016-07-11T01:41:46.104Z,793
2016-07-11T01:42:16.122Z,789
2016-07-11T01:42:46.135Z,789
2016-07-11T01:43:16.149Z,778
2016-07-11T01:43:46.169Z,778
2016-07-11T01:44:16.199Z,789
2016-07-11T01:44:46.198Z,789
2016-07-11T01:45:16.219Z,786
2016-07-11T01:45:46.229Z,786
2016-07-11T01:46:16.247Z,786
2016-07-11T01:46:46.279Z,797
2016-07-11T01:47:16.270Z,793
2016-07-11T01:47:46.296Z,789
2016-07-11T01:48:16.305Z,789
2016-07-11T01:48:46.319Z,792
2016-07-11T01:49:16.333Z,800
2016-07-11T01:49:46.354Z,796
2016-07-11T01:50:16.375Z,796
2016-07-11T01:50:46.381Z,796
2016-07-11T01:51:16.405Z,796
2016-07-11T01:51:46.414Z,804
2016-07-11T01:52:16.428Z,800
2016-07-11T01:52:46.445Z,800
2016-07-11T01:53:16.465Z,808
2016-07-11T01:53:46.473Z,801
2016-07-11T01:54:16.494Z,796
2016-07-11T01:54:46.506Z,796
2016-07-11T01:55:16.518Z,793
2016-07-11T01:55:46.541Z,800
2016-07-11T01:56:16.555Z,796
2016-07-11T01:56:46.564Z,796
2016-07-11T01:57:16.588Z,796
2016-07-11T01:57:45.988Z,799
2016-07-11T01:58:16.616Z,799
2016-07-11T01:58:46.628Z,799
2016-07-11T01:59:16.650Z,799
2016-07-11T01:59:46.662Z,799
2016-07-11T02:00:16.680Z,799
2016-07-11T02:00:46.699Z,803
2016-07-11T02:01:16.093Z,797
2016-07-11T02:01:46.725Z,810
2016-07-11T02:02:16.743Z,810
2016-07-11T02:02:46.758Z,810
2016-07-11T02:03:16.770Z,810
2016-07-11T02:03:46.789Z,807
2016-07-11T02:04:16.801Z,800
2016-07-11T02:04:46.813Z,800
2016-07-11T02:05:16.834Z,807
2016-07-11T02:05:46.849Z,807
2016-07-11T02:06:16.863Z,811
2016-07-11T02:06:46.879Z,805
2016-07-11T02:07:16.895Z,805
2016-07-11T02:07:46.908Z,811
2016-07-11T02:08:16.922Z,799
2016-07-11T02:08:46.940Z,799
2016-07-11T02:09:16.959Z,807
2016-07-11T02:09:46.972Z,807
2016-07-11T02:10:16.992Z,807
2016-07-11T02:10:47.004Z,807
2016-07-11T02:11:17.021Z,803
2016-07-11T02:11:47.033Z,801
2016-07-11T02:12:17.050Z,808
2016-07-11T02:12:47.064Z,806
2016-07-11T02:13:17.083Z,814
2016-07-11T02:13:47.098Z,814
2016-07-11T02:14:17.109Z,814
2016-07-11T02:14:47.129Z,807
2016-07-11T02:15:16.528Z,807
2016-07-11T02:15:47.160Z,810
2016-07-11T02:16:17.179Z,810
2016-07-11T02:16:47.191Z,810
2016-07-11T02:17:17.211Z,810
2016-07-11T02:17:47.222Z,810
2016-07-11T02:18:17.241Z,810
2016-07-11T02:18:47.250Z,810
2016-07-11T02:19:17.270Z,803
2016-07-11T02:19:47.283Z,803
2016-07-11T02:20:17.302Z,803
2016-07-11T02:20:47.311Z,803
2016-07-11T02:21:17.334Z,803
2016-07-11T02:21:47.343Z,803
2016-07-11T02:22:17.367Z,803
2016-07-11T02:22:47.375Z,803
2016-07-11T02:23:17.390Z,803
2016-07-11T02:23:47.413Z,803
2016-07-11T02:24:17.423Z,804
2016-07-11T02:24:47.440Z,810
2016-07-11T02:25:16.838Z,810
2016-07-11T02:25:47.480Z,807
2016-07-11T02:26:17.485Z,807
2016-07-11T02:26:47.521Z,803
2016-07-11T02:27:17.516Z,806
2016-07-11T02:27:47.532Z,806
2016-07-11T02:28:17.552Z,806
2016-07-11T02:28:47.565Z,806
2016-07-11T02:29:17.581Z,806
2016-07-11T02:29:47.600Z,806
2016-07-11T02:30:17.612Z,802
2016-07-11T02:30:47.626Z,802
2016-07-11T02:31:17.641Z,802
2016-07-11T02:31:47.657Z,802
2016-07-11T02:32:17.680Z,802
2016-07-11T02:32:47.690Z,809
2016-07-11T02:33:17.713Z,805
2016-07-11T02:33:47.719Z,805
2016-07-11T02:34:17.740Z,805
2016-07-11T02:34:47.752Z,805
2016-07-11T02:35:17.762Z,805
2016-07-11T02:35:47.788Z,805
2016-07-11T02:36:17.799Z,805
2016-07-11T02:36:47.813Z,809
2016-07-11T02:37:17.828Z,812
2016-07-11T02:37:47.848Z,812
2016-07-11T02:38:17.242Z,812
2016-07-11T02:38:47.870Z,812
2016-07-11T02:39:17.890Z,812
2016-07-11T02:39:47.905Z,808
2016-07-11T02:40:17.929Z,808
2016-07-11T02:40:47.940Z,812
2016-07-11T02:41:17.957Z,800
2016-07-11T02:41:47.965Z,819
2016-07-11T02:42:17.986Z,810
2016-07-11T02:42:48.005Z,803
2016-07-11T02:43:18.020Z,807
2016-07-11T02:43:48.033Z,810
2016-07-11T02:44:18.047Z,803
2016-07-11T02:44:48.061Z,803
2016-07-11T02:45:18.078Z,810
2016-07-11T02:45:48.093Z,814
2016-07-11T02:46:18.107Z,814
2016-07-11T02:46:48.133Z,814
2016-07-11T02:47:18.138Z,817
2016-07-11T02:47:48.155Z,817
2016-07-11T02:48:18.175Z,813
2016-07-11T02:48:48.186Z,816
2016-07-11T02:49:18.203Z,816
2016-07-11T02:49:47.602Z,807
2016-07-11T02:50:18.232Z,807
2016-07-11T02:50:48.246Z,811
2016-07-11T02:51:18.263Z,814
2016-07-11T02:51:48.278Z,814
2016-07-11T02:52:18.291Z,814
2016-07-11T02:52:48.305Z,814
2016-07-11T02:53:17.711Z,818
2016-07-11T02:53:48.348Z,815
2016-07-11T02:54:18.353Z,815
2016-07-11T02:54:48.372Z,815
2016-07-11T02:55:18.387Z,815
2016-07-11T02:55:48.404Z,819
2016-07-11T02:56:18.420Z,819
2016-07-11T02:56:48.430Z,819
2016-07-11T02:57:18.458Z,819
2016-07-11T02:57:48.468Z,820
2016-07-11T02:58:18.481Z,816
2016-07-11T02:58:48.501Z,816
2016-07-11T02:59:18.513Z,816
2016-07-11T02:59:48.529Z,813
2016-07-11T03:00:17.928Z,816
2016-07-11T03:00:48.558Z,816
2016-07-11T03:01:18.573Z,820
2016-07-11T03:01:48.590Z,820
2016-07-11T03:02:18.606Z,807
2016-07-11T03:02:48.620Z,810
2016-07-11T03:03:18.632Z,814
2016-07-11T03:03:48.653Z,814
2016-07-11T03:04:18.671Z,814
2016-07-11T03:04:48.681Z,814
2016-07-11T03:05:18.699Z,824
2016-07-11T03:05:48.715Z,823
2016-07-11T03:06:18.728Z,813
2016-07-11T03:06:48.745Z,817
2016-07-11T03:07:18.760Z,817
2016-07-11T03:07:48.784Z,817
2016-07-11T03:08:18.788Z,817
2016-07-11T03:08:48.803Z,817
2016-07-11T03:09:18.827Z,825
2016-07-11T03:09:48.839Z,816
2016-07-11T03:10:18.854Z,816
2016-07-11T03:10:48.870Z,823
2016-07-11T03:11:18.893Z,823
2016-07-11T03:11:48.899Z,823
2016-07-11T03:12:18.913Z,823
2016-07-11T03:12:48.933Z,816
2016-07-11T03:13:18.942Z,820
2016-07-11T03:13:48.964Z,820
2016-07-11T03:14:18.983Z,820
2016-07-11T03:14:48.993Z,820
2016-07-11T03:15:19.008Z,813
2016-07-11T03:15:49.028Z,813
2016-07-11T03:16:19.041Z,813
2016-07-11T03:16:49.053Z,813
2016-07-11T03:17:19.071Z,816
2016-07-11T03:17:49.088Z,820
2016-07-11T03:18:19.100Z,820
2016-07-11T03:18:49.115Z,820
2016-07-11T03:19:19.129Z,820
2016-07-11T03:19:48.533Z,819
2016-07-11T03:20:19.175Z,823
2016-07-11T03:20:49.178Z,823
2016-07-11T03:21:19.192Z,823
2016-07-11T03:21:49.212Z,826
2016-07-11T03:22:19.245Z,821
2016-07-11T03:22:49.237Z,824
2016-07-11T03:23:19.250Z,828
2016-07-11T03:23:49.269Z,819
2016-07-11T03:24:19.286Z,826
2016-07-11T03:24:49.301Z,819
2016-07-11T03:25:19.324Z,823
2016-07-11T03:25:49.335Z,823
2016-07-11T03:26:19.354Z,819
2016-07-11T03:26:49.368Z,823
2016-07-11T03:27:19.383Z,823
2016-07-11T03:27:49.395Z,823
2016-07-11T03:28:19.419Z,827
2016-07-11T03:28:49.433Z,827
2016-07-11T03:29:19.444Z,814
2016-07-11T03:29:49.461Z,821
2016-07-11T03:30:19.474Z,825
2016-07-11T03:30:49.491Z,816
2016-07-11T03:31:19.505Z,827
2016-07-11T03:31:49.518Z,827
2016-07-11T03:32:19.535Z,827
2016-07-11T03:32:49.553Z,820
2016-07-11T03:33:19.566Z,820
2016-07-11T03:33:49.580Z,820
2016-07-11T03:34:19.598Z,820
2016-07-11T03:34:49.621Z,824
2016-07-11T03:35:19.020Z,824
2016-07-11T03:35:49.645Z,824
2016-07-11T03:36:19.660Z,819
2016-07-11T03:36:49.691Z,819
2016-07-11T03:37:19.692Z,819
2016-07-11T03:37:49.709Z,827
2016-07-11T03:38:19.721Z,826
2016-07-11T03:38:49.736Z,826
2016-07-11T03:39:19.752Z,826
2016-07-11T03:39:49.768Z,822
2016-07-11T03:40:19.168Z,822
2016-07-11T03:40:49.805Z,815
2016-07-11T03:41:19.813Z,819
2016-07-11T03:41:49.222Z,818
2016-07-11T03:42:19.841Z,818
2016-07-11T03:42:49.859Z,822
2016-07-11T03:43:19.882Z,822
2016-07-11T03:43:49.897Z,822
2016-07-11T03:44:19.925Z,822
2016-07-11T03:44:49.308Z,822
2016-07-11T03:45:19.328Z,824
2016-07-11T03:45:49.956Z,824
2016-07-11T03:46:19.356Z,824
2016-07-11T03:46:49.986Z,824
2016-07-11T03:47:19.999Z,831
2016-07-11T03:47:50.015Z,831
2016-07-11T03:48:20.035Z,828
2016-07-11T03:48:50.049Z,824
2016-07-11T03:49:20.066Z,824
2016-07-11T03:49:50.079Z,824
2016-07-11T03:50:20.102Z,824
2016-07-11T03:50:50.110Z,834
2016-07-11T03:51:20.123Z,834
2016-07-11T03:51:50.156Z,821
2016-07-11T03:52:20.161Z,824
2016-07-11T03:52:50.168Z,817
2016-07-11T03:53:20.189Z,817
2016-07-11T03:53:50.206Z,817
2016-07-11T03:54:19.601Z,824
2016-07-11T03:54:50.233Z,821
2016-07-11T03:55:19.634Z,817
2016-07-11T03:55:50.265Z,817
2016-07-11T03:56:20.277Z,817
2016-07-11T03:56:50.299Z,817
2016-07-11T03:57:20.320Z,829
2016-07-11T03:57:50.325Z,825
2016-07-11T03:58:20.344Z,822
2016-07-11T03:58:50.359Z,818
2016-07-11T03:59:20.376Z,811
2016-07-11T03:59:50.393Z,811
2016-07-11T04:00:20.407Z,814
2016-07-11T04:00:50.423Z,814
2016-07-11T04:01:20.435Z,818
2016-07-11T04:01:50.454Z,814
2016-07-11T04:02:20.467Z,822
2016-07-11T04:02:50.482Z,818
2016-07-11T04:03:20.504Z,818
2016-07-11T04:03:49.903Z,818
2016-07-11T04:04:20.531Z,818
2016-07-11T04:04:50.547Z,822
2016-07-11T04:05:20.563Z,825
2016-07-11T04:05:50.574Z,825
2016-07-11T04:06:20.598Z,825
2016-07-11T04:06:50.608Z,825
2016-07-11T04:07:20.622Z,825
2016-07-11T04:07:50.643Z,822
2016-07-11T04:08:20.655Z,822
2016-07-11T04:08:50.667Z,818
2016-07-11T04:09:20.684Z,818
2016-07-11T04:09:50.701Z,826
2016-07-11T04:10:20.718Z,816
2016-07-11T04:10:50.733Z,816
2016-07-11T04:11:20.767Z,816
2016-07-11T04:11:50.766Z,816
2016-07-11T04:12:20.778Z,827
2016-07-11T04:12:50.797Z,823
2016-07-11T04:13:20.815Z,823
2016-07-11T04:13:50.827Z,823
2016-07-11T04:14:20.842Z,820
2016-07-11T04:14:50.854Z,820
2016-07-11T04:15:20.873Z,823
2016-07-11T04:15:50.889Z,823
2016-07-11T04:16:20.298Z,812
2016-07-11T04:16:50.916Z,812
2016-07-11T04:17:20.934Z,819
2016-07-11T04:17:50.334Z,829
2016-07-11T04:18:20.965Z,826
2016-07-11T04:18:50.367Z,826
2016-07-11T04:19:20.998Z,826
2016-07-11T04:19:51.012Z,826
2016-07-11T04:20:21.030Z,826
2016-07-11T04:20:51.043Z,822
2016-07-11T04:21:21.063Z,822
2016-07-11T04:21:51.074Z,822
2016-07-11T04:22:21.101Z,823
2016-07-11T04:22:51.114Z,823
2016-07-11T04:23:21.132Z,823
2016-07-11T04:23:51.136Z,819
2016-07-11T04:24:21.153Z,819
2016-07-11T04:24:51.170Z,819
2016-07-11T04:25:21.189Z,823
2016-07-11T04:25:51.200Z,815
2016-07-11T04:26:21.211Z,823
2016-07-11T04:26:51.234Z,823
2016-07-11T04:27:21.249Z,816
2016-07-11T04:27:51.261Z,819
2016-07-11T04:28:20.663Z,816
2016-07-11T04:28:51.296Z,819
2016-07-11T04:29:21.309Z,819
2016-07-11T04:29:51.326Z,819
2016-07-11T04:30:21.341Z,816
2016-07-11T04:30:50.738Z,816
2016-07-11T04:31:21.373Z,813
2016-07-11T04:31:51.390Z,820
2016-07-11T04:32:21.400Z,813
2016-07-11T04:32:51.417Z,817
2016-07-11T04:33:21.435Z,817
2016-07-11T04:33:51.447Z,817
2016-07-11T04:34:21.466Z,821
2016-07-11T04:34:51.478Z,821
2016-07-11T04:35:21.496Z,814
2016-07-11T04:35:51.511Z,815
2016-07-11T04:36:21.530Z,815
2016-07-11T04:36:51.543Z,815
2016-07-11T04:37:21.557Z,819
2016-07-11T04:37:51.575Z,819
2016-07-11T04:38:21.586Z,819
2016-07-11T04:38:51.610Z,816
2016-07-11T04:39:21.625Z,816
2016-07-11T04:39:51.632Z,804
2016-07-11T04:40:21.655Z,812
2016-07-11T04:40:51.670Z,818
2016-07-11T04:41:21.694Z,818
2016-07-11T04:41:51.083Z,814
2016-07-11T04:42:21.719Z,811
2016-07-11T04:42:51.729Z,811
2016-07-11T04:43:21.743Z,815
2016-07-11T04:43:51.758Z,811
2016-07-11T04:44:21.159Z,811
2016-07-11T04:44:51.788Z,811
2016-07-11T04:45:21.809Z,811
2016-07-11T04:45:51.822Z,811
2016-07-11T04:46:21.853Z,811
2016-07-11T04:46:51.852Z,811
2016-07-11T04:47:21.869Z,811
2016-07-11T04:47:51.883Z,811
2016-07-11T04:48:21.909Z,805
2016-07-11T04:48:51.917Z,812
2016-07-11T04:49:21.930Z,812
2016-07-11T04:49:51.948Z,812
2016-07-11T04:50:21.965Z,800
2016-07-11T04:50:51.979Z,807
2016-07-11T04:51:21.993Z,807
2016-07-11T04:51:52.007Z,814
2016-07-11T04:52:22.027Z,810
2016-07-11T04:52:52.046Z,810
2016-07-11T04:53:22.057Z,810
2016-07-11T04:53:51.463Z,810
2016-07-11T04:54:22.089Z,810
2016-07-11T04:54:52.103Z,807
2016-07-11T04:55:22.133Z,807
2016-07-11T04:55:52.136Z,806
2016-07-11T04:56:22.153Z,813
2016-07-11T04:56:52.165Z,809
2016-07-11T04:57:22.179Z,806
2016-07-11T04:57:52.196Z,810
2016-07-11T04:58:22.216Z,806
2016-07-11T04:58:52.226Z,806
2016-07-11T04:59:22.252Z,803
2016-07-11T04:59:52.259Z,803
2016-07-11T05:00:22.276Z,814
2016-07-11T05:00:52.291Z,810
2016-07-11T05:01:22.311Z,800
2016-07-11T05:01:52.326Z,800
2016-07-11T05:02:21.726Z,805
2016-07-11T05:02:52.356Z,805
2016-07-11T05:03:22.371Z,814
2016-07-11T05:03:51.770Z,807
2016-07-11T05:04:22.409Z,799
2016-07-11T05:04:52.419Z,796
2016-07-11T05:05:22.440Z,799
2016-07-11T05:05:52.450Z,811
2016-07-11T05:06:22.467Z,800
2016-07-11T05:06:52.479Z,807
2016-07-11T05:07:22.497Z,808
2016-07-11T05:07:52.520Z,803
2016-07-11T05:08:22.527Z,803
2016-07-11T05:08:52.541Z,807
2016-07-11T05:09:22.555Z,803
2016-07-11T05:09:52.584Z,803
2016-07-11T05:10:22.590Z,803
2016-07-11T05:10:52.605Z,803
2016-07-11T05:11:22.619Z,807
2016-07-11T05:11:52.634Z,810
2016-07-11T05:12:22.650Z,807
2016-07-11T05:12:52.668Z,798
2016-07-11T05:13:22.684Z,806
2016-07-11T05:13:52.699Z,806
2016-07-11T05:14:22.719Z,787
2016-07-11T05:14:52.734Z,794
2016-07-11T05:15:22.749Z,797
2016-07-11T05:15:52.761Z,794
2016-07-11T05:16:22.780Z,802
2016-07-11T05:16:52.793Z,802
2016-07-11T05:17:22.813Z,810
2016-07-11T05:17:52.210Z,791
2016-07-11T05:18:22.836Z,791
2016-07-11T05:18:52.859Z,791
2016-07-11T05:19:22.871Z,787
2016-07-11T05:19:52.886Z,787
2016-07-11T05:20:22.903Z,795
2016-07-11T05:20:52.918Z,792
2016-07-11T05:21:22.930Z,792
2016-07-11T05:21:52.950Z,795
2016-07-11T05:22:22.968Z,795
2016-07-11T05:22:52.978Z,795
2016-07-11T05:23:22.994Z,795
2016-07-11T05:23:53.012Z,795
2016-07-11T05:24:22.417Z,791
2016-07-11T05:24:53.044Z,798
2016-07-11T05:25:23.076Z,788
2016-07-11T05:25:53.073Z,784
2016-07-11T05:26:23.094Z,788
2016-07-11T05:26:52.492Z,798
2016-07-11T05:27:23.120Z,798
2016-07-11T05:27:53.142Z,795
2016-07-11T05:28:23.157Z,795
2016-07-11T05:28:53.171Z,799
2016-07-11T05:29:23.190Z,795
2016-07-11T05:29:53.203Z,795
2016-07-11T05:30:23.214Z,795
2016-07-11T05:30:52.617Z,792
2016-07-11T05:31:23.251Z,795
2016-07-11T05:31:53.262Z,792
2016-07-11T05:32:23.278Z,792
2016-07-11T05:32:53.297Z,792
2016-07-11T05:33:23.321Z,792
2016-07-11T05:33:53.328Z,796
2016-07-11T05:34:23.343Z,796
2016-07-11T05:34:52.743Z,796
2016-07-11T05:35:22.765Z,796
2016-07-11T05:35:53.389Z,796
2016-07-11T05:36:23.405Z,788
2016-07-11T05:36:53.418Z,798
2016-07-11T05:37:23.438Z,798
2016-07-11T05:37:53.455Z,795
2016-07-11T05:38:23.465Z,788
2016-07-11T05:38:53.486Z,800
2016-07-11T05:39:23.502Z,792
2016-07-11T05:39:53.516Z,786
2016-07-11T05:40:23.537Z,786
2016-07-11T05:40:53.551Z,789
2016-07-11T05:41:23.564Z,789
2016-07-11T05:41:53.579Z,789
2016-07-11T05:42:23.596Z,793
2016-07-11T05:42:53.611Z,793
2016-07-11T05:43:23.625Z,774
2016-07-11T05:43:53.029Z,789
2016-07-11T05:44:23.656Z,789
2016-07-11T05:44:53.674Z,795
2016-07-11T05:45:23.072Z,795
2016-07-11T05:45:53.704Z,792
2016-07-11T05:46:23.719Z,783
2016-07-11T05:46:53.128Z,790
2016-07-11T05:47:23.751Z,790
2016-07-11T05:47:53.766Z,794
2016-07-11T05:48:23.782Z,790
2016-07-11T05:48:53.799Z,783
2016-07-11T05:49:23.822Z,783
2016-07-11T05:49:53.826Z,790
2016-07-11T05:50:23.848Z,794
2016-07-11T05:50:53.863Z,794
2016-07-11T05:51:23.894Z,783
2016-07-11T05:51:53.893Z,773
2016-07-11T05:52:23.905Z,773
2016-07-11T05:52:53.927Z,780
2016-07-11T05:53:23.941Z,779
2016-07-11T05:53:53.954Z,793
2016-07-11T05:54:23.978Z,793
2016-07-11T05:54:53.990Z,793
2016-07-11T05:55:24.009Z,793
2016-07-11T05:55:54.023Z,793
2016-07-11T05:56:24.033Z,789
2016-07-11T05:56:54.048Z,775
2016-07-11T05:57:24.068Z,775
2016-07-11T05:57:54.081Z,793
2016-07-11T05:58:24.095Z,796
2016-07-11T05:58:54.113Z,796
2016-07-11T05:59:24.134Z,796
2016-07-11T05:59:54.152Z,792
2016-07-11T06:00:24.163Z,792
2016-07-11T06:00:54.175Z,802
2016-07-11T06:01:24.198Z,798
2016-07-11T06:01:54.207Z,787
2016-07-11T06:02:24.222Z,778
2016-07-11T06:02:54.242Z,786
2016-07-11T06:03:24.251Z,792
2016-07-11T06:03:53.657Z,792
2016-07-11T06:04:24.284Z,792
2016-07-11T06:04:53.686Z,792
2016-07-11T06:05:24.319Z,784
2016-07-11T06:05:54.339Z,784
2016-07-11T06:06:24.352Z,781
2016-07-11T06:06:54.378Z,784
2016-07-11T06:07:24.378Z,788
2016-07-11T06:07:54.397Z,788
2016-07-11T06:08:24.412Z,784
2016-07-11T06:08:54.429Z,784
2016-07-11T06:09:24.442Z,784
2016-07-11T06:09:54.464Z,791
2016-07-11T06:10:24.475Z,787
2016-07-11T06:10:54.489Z,780
2016-07-11T06:11:24.514Z,776
2016-07-11T06:11:54.523Z,770
2016-07-11T06:12:24.539Z,776
2016-07-11T06:12:54.554Z,776
2016-07-11T06:13:24.573Z,776
2016-07-11T06:13:54.583Z,784
2016-07-11T06:14:24.604Z,773
2016-07-11T06:14:54.617Z,773
2016-07-11T06:15:24.630Z,773
2016-07-11T06:15:54.650Z,773
2016-07-11T06:16:24.663Z,769
2016-07-11T06:16:54.682Z,769
2016-07-11T06:17:24.697Z,772
2016-07-11T06:17:54.708Z,772
2016-07-11T06:18:24.727Z,509
2016-07-11T06:18:54.745Z,509
2016-07-11T06:19:24.760Z,775
2016-07-11T06:19:54.774Z,779
2016-07-11T06:20:24.789Z,509
2016-07-11T06:20:54.804Z,509
2016-07-11T06:21:24.825Z,509
2016-07-11T06:21:54.842Z,768
2016-07-11T06:22:24.858Z,768
2016-07-11T06:22:54.872Z,505
2016-07-11T06:23:24.884Z,505
2016-07-11T06:23:54.897Z,771
2016-07-11T06:24:24.920Z,771
2016-07-11T06:24:54.946Z,771
2016-07-11T06:25:24.948Z,505
2016-07-11T06:25:54.966Z,497
2016-07-11T06:26:24.980Z,500
2016-07-11T06:26:54.998Z,496
2016-07-11T06:27:25.012Z,493
2016-07-11T06:27:54.410Z,496
2016-07-11T06:28:25.043Z,500
2016-07-11T06:28:55.061Z,502
2016-07-11T06:29:25.069Z,502
2016-07-11T06:29:55.090Z,502
2016-07-11T06:30:25.109Z,502
2016-07-11T06:30:55.122Z,491
2016-07-11T06:31:25.145Z,501
2016-07-11T06:31:55.154Z,504
2016-07-11T06:32:25.170Z,501
2016-07-11T06:32:55.187Z,501
2016-07-11T06:33:25.199Z,490
2016-07-11T06:33:55.219Z,490
2016-07-11T06:34:25.233Z,493
2016-07-11T06:34:54.636Z,496
2016-07-11T06:35:25.264Z,496
2016-07-11T06:35:55.277Z,494
2016-07-11T06:36:25.302Z,505
2016-07-11T06:36:55.310Z,502
2016-07-11T06:37:25.326Z,495
2016-07-11T06:37:55.344Z,495
2016-07-11T06:38:25.359Z,495
2016-07-11T06:38:55.373Z,495
2016-07-11T06:39:25.395Z,495
2016-07-11T06:39:55.405Z,495
2016-07-11T06:40:24.809Z,495
2016-07-11T06:40:55.442Z,495
2016-07-11T06:41:25.458Z,495
2016-07-11T06:41:55.475Z,489
2016-07-11T06:42:25.485Z,479
2016-07-11T06:42:54.894Z,482
2016-07-11T06:43:24.911Z,482
2016-07-11T06:43:55.545Z,479
2016-07-11T06:44:27.689Z,485
2016-07-11T06:44:57.459Z,482
2016-07-11T06:45:26.927Z,485
2016-07-11T06:45:57.969Z,482
2016-07-11T06:46:27.213Z,488
2016-07-11T06:46:57.662Z,485
2016-07-11T06:47:25.650Z,478
2016-07-11T06:47:55.799Z,478
2016-07-11T06:48:25.683Z,492
2016-07-11T06:48:58.006Z,492
2016-07-11T06:49:25.712Z,488
2016-07-11T06:49:58.184Z,491
2016-07-11T06:50:28.146Z,491
2016-07-11T06:50:57.834Z,491
2016-07-11T06:51:28.285Z,494
2016-07-11T06:51:58.013Z,494
2016-07-11T06:52:28.213Z,498
2016-07-11T06:52:58.257Z,502
2016-07-11T06:53:28.460Z,487